createdAt,value
2023-04-18T00:00:49.624Z,14.90
2023-04-18T00:03:16.883Z,15.01
2023-04-18T00:05:48.374Z,14.99
2023-04-18T00:08:15.668Z,14.88
2023-04-18T00:10:42.816Z,14.83
2023-04-18T00:13:10.590Z,14.80
2023-04-18T00:15:37.745Z,14.83
2023-04-18T00:18:06.417Z,14.76
2023-04-18T00:20:33.550Z,14.71
2023-04-18T00:23:01.011Z,14.54
2023-04-18T00:25:28.055Z,14.49
2023-04-18T00:27:54.995Z,14.50
2023-04-18T00:30:21.838Z,14.52
2023-04-18T00:32:48.788Z,14.60
2023-04-18T00:35:16.256Z,14.66
2023-04-18T00:37:43.376Z,14.70
2023-04-18T00:40:10.972Z,14.63
2023-04-18T00:42:37.881Z,14.59
2023-04-18T00:45:06.547Z,14.55
2023-04-18T00:47:33.461Z,14.48
2023-04-18T00:50:00.859Z,14.43
2023-04-18T00:52:28.552Z,14.49
2023-04-18T00:54:55.982Z,14.41
2023-04-18T00:57:23.024Z,14.43
2023-04-18T00:59:50.170Z,14.58
2023-04-18T01:02:17.881Z,14.52
2023-04-18T01:04:45.329Z,14.39
2023-04-18T01:07:13.019Z,14.21
2023-04-18T01:09:41.881Z,14.24
2023-04-18T01:12:08.902Z,14.18
2023-04-18T01:14:35.922Z,14.18
2023-04-18T01:17:03.172Z,14.25
2023-04-18T01:19:30.604Z,14.36
2023-04-18T01:21:57.668Z,14.33
2023-04-18T01:24:27.345Z,14.27
2023-04-18T01:26:54.376Z,14.15
2023-04-18T01:29:21.723Z,14.20
2023-04-18T01:31:49.969Z,14.17
2023-04-18T01:34:18.608Z,14.25
2023-04-18T01:36:46.555Z,14.20
2023-04-18T01:39:14.254Z,14.08
2023-04-18T01:41:42.640Z,14.20
2023-04-18T01:44:09.678Z,14.17
2023-04-18T01:46:37.389Z,14.16
2023-04-18T01:49:04.490Z,14.12
2023-04-18T01:51:32.130Z,14.05
2023-04-18T01:53:59.192Z,13.89
2023-04-18T01:56:26.363Z,13.93
2023-04-18T01:58:53.257Z,13.96
2023-04-18T02:01:20.921Z,14.04
2023-04-18T02:03:48.456Z,14.23
2023-04-18T02:06:16.061Z,14.27
2023-04-18T02:08:42.927Z,14.31
2023-04-18T02:11:10.262Z,14.38
2023-04-18T02:13:37.289Z,14.45
2023-04-18T02:16:04.383Z,14.50
2023-04-18T02:18:34.970Z,14.33
2023-04-18T02:21:02.737Z,14.46
2023-04-18T02:23:30.042Z,14.61
2023-04-18T02:25:57.123Z,14.75
2023-04-18T02:28:24.166Z,14.86
2023-04-18T02:30:51.481Z,14.83
2023-04-18T02:33:18.465Z,14.73
2023-04-18T02:35:45.924Z,14.46
2023-04-18T02:38:14.190Z,14.52
2023-04-18T02:40:41.452Z,14.61
2023-04-18T02:43:09.087Z,14.76
2023-04-18T02:45:36.323Z,14.81
2023-04-18T02:48:03.604Z,14.84
2023-04-18T02:50:30.923Z,14.84
2023-04-18T02:52:58.130Z,14.88
2023-04-18T02:55:27.293Z,14.81
2023-04-18T02:57:54.603Z,14.49
2023-04-18T03:00:21.694Z,14.57
2023-04-18T03:02:48.766Z,14.59
2023-04-18T03:05:15.784Z,14.64
2023-04-18T03:07:42.831Z,14.58
2023-04-18T03:10:10.794Z,14.51
2023-04-18T03:12:37.844Z,14.37
2023-04-18T03:15:05.598Z,14.45
2023-04-18T03:17:33.046Z,14.31
2023-04-18T03:20:00.124Z,14.21
2023-04-18T03:22:27.320Z,14.47
2023-04-18T03:24:54.403Z,14.29
2023-04-18T03:27:21.445Z,14.19
2023-04-18T03:29:48.386Z,14.36
2023-04-18T03:32:15.433Z,14.52
2023-04-18T03:34:42.373Z,14.58
2023-04-18T03:37:09.649Z,14.61
2023-04-18T03:39:36.870Z,14.54
2023-04-18T03:42:04.224Z,14.50
2023-04-18T03:44:31.679Z,14.64
2023-04-18T03:46:59.030Z,14.63
2023-04-18T03:49:26.219Z,14.60
2023-04-18T03:51:53.157Z,14.47
2023-04-18T03:54:20.267Z,14.43
2023-04-18T03:56:47.802Z,14.39
2023-04-18T03:59:15.804Z,14.42
2023-04-18T04:01:43.147Z,14.55
2023-04-18T04:04:12.553Z,14.63
2023-04-18T04:06:40.013Z,14.55
2023-04-18T04:09:07.157Z,14.48
2023-04-18T04:11:34.366Z,14.49
2023-04-18T04:14:01.599Z,14.40
2023-04-18T04:16:29.128Z,14.33
2023-04-18T04:18:56.262Z,14.38
2023-04-18T04:21:23.305Z,14.46
2023-04-18T04:23:50.451Z,14.45
2023-04-18T04:26:17.600Z,14.51
2023-04-18T04:28:46.847Z,14.50
2023-04-18T04:31:14.206Z,14.53
2023-04-18T04:33:41.389Z,14.43
2023-04-18T04:36:09.799Z,14.53
2023-04-18T04:38:38.758Z,14.59
2023-04-18T04:41:08.050Z,14.67
2023-04-18T04:43:35.302Z,14.72
2023-04-18T04:46:08.129Z,14.67
2023-04-18T04:48:35.829Z,14.49
2023-04-18T04:51:03.006Z,14.34
2023-04-18T04:53:33.419Z,14.32
2023-04-18T04:56:00.864Z,14.36
2023-04-18T04:58:28.950Z,14.38
2023-04-18T05:00:56.215Z,14.40
2023-04-18T05:03:23.480Z,14.36
2023-04-18T05:05:50.931Z,14.52
2023-04-18T05:08:18.144Z,14.47
2023-04-18T05:10:46.280Z,14.58
2023-04-18T05:13:13.980Z,14.61
2023-04-18T05:15:41.230Z,14.69
2023-04-18T05:18:09.051Z,14.75
2023-04-18T05:20:36.419Z,14.72
2023-04-18T05:23:03.592Z,14.70
2023-04-18T05:25:31.974Z,14.78
2023-04-18T05:28:01.577Z,14.89
2023-04-18T05:30:33.534Z,14.92
2023-04-18T05:33:08.293Z,14.91
2023-04-18T05:35:41.700Z,14.81
2023-04-18T05:38:08.675Z,14.94
2023-04-18T05:40:36.053Z,14.92
2023-04-18T05:43:03.083Z,14.70
2023-04-18T05:45:30.144Z,14.87
2023-04-18T05:47:57.530Z,14.87
2023-04-18T05:50:24.640Z,14.62
2023-04-18T05:52:51.896Z,14.83
2023-04-18T05:55:19.041Z,14.99
2023-04-18T05:57:45.986Z,15.10
2023-04-18T06:00:14.009Z,15.04
2023-04-18T06:02:41.473Z,14.95
2023-04-18T06:05:09.589Z,14.87
2023-04-18T06:07:36.853Z,14.99
2023-04-18T06:10:06.223Z,15.00
2023-04-18T06:12:33.075Z,14.97
2023-04-18T06:15:00.285Z,14.95
2023-04-18T06:17:27.766Z,14.94
2023-04-18T06:19:54.729Z,15.16
2023-04-18T06:22:21.804Z,15.18
2023-04-18T06:24:49.113Z,15.26
2023-04-18T06:27:30.130Z,15.46
2023-04-18T06:29:58.278Z,15.43
2023-04-18T06:32:25.758Z,15.50
2023-04-18T06:34:53.592Z,15.54
2023-04-18T06:37:21.130Z,15.53
2023-04-18T06:39:48.436Z,15.51
2023-04-18T06:42:15.565Z,15.37
2023-04-18T06:44:43.419Z,15.14
2023-04-18T06:47:11.475Z,14.98
2023-04-18T06:49:38.580Z,15.14
2023-04-18T06:52:05.867Z,15.15
2023-04-18T06:54:32.915Z,14.99
2023-04-18T06:57:00.522Z,14.97
2023-04-18T06:59:27.443Z,15.13
2023-04-18T07:01:54.663Z,15.24
2023-04-18T07:04:22.179Z,15.26
2023-04-18T07:06:49.408Z,14.71
2023-04-18T07:09:16.759Z,13.66
2023-04-18T07:11:43.867Z,13.39
2023-04-18T07:14:12.549Z,14.09
2023-04-18T07:16:40.050Z,14.63
2023-04-18T07:19:07.160Z,14.86
2023-04-18T07:21:34.294Z,14.84
2023-04-18T07:24:01.559Z,15.00
2023-04-18T07:26:28.763Z,15.18
2023-04-18T07:28:55.741Z,14.31
2023-04-18T07:31:23.304Z,13.53
2023-04-18T07:33:50.642Z,13.51
2023-04-18T07:36:18.036Z,14.22
2023-04-18T07:38:45.875Z,14.79
2023-04-18T07:41:13.115Z,15.41
2023-04-18T07:43:40.880Z,15.67
2023-04-18T07:46:08.317Z,14.89
2023-04-18T07:48:35.565Z,14.03
2023-04-18T07:51:03.555Z,13.68
2023-04-18T07:53:30.903Z,14.43
2023-04-18T07:55:58.141Z,14.97
2023-04-18T07:58:25.563Z,14.53
2023-04-18T08:00:52.693Z,13.88
2023-04-18T08:03:20.265Z,13.51
2023-04-18T08:05:47.352Z,14.24
2023-04-18T08:08:14.438Z,15.23
2023-04-18T08:10:41.542Z,15.14
2023-04-18T08:13:09.154Z,14.40
2023-04-18T08:15:36.072Z,13.78
2023-04-18T08:18:03.247Z,13.43
2023-04-18T08:20:30.666Z,14.15
2023-04-18T08:23:07.357Z,15.28
2023-04-18T08:25:36.844Z,15.90
2023-04-18T08:28:04.380Z,15.36
2023-04-18T08:30:31.807Z,14.67
2023-04-18T08:33:01.066Z,14.17
2023-04-18T08:35:28.156Z,13.93
2023-04-18T08:37:55.167Z,14.36
2023-04-18T08:40:22.688Z,15.59
2023-04-18T08:42:52.461Z,16.14
2023-04-18T08:45:20.362Z,15.79
2023-04-18T08:47:47.674Z,15.43
2023-04-18T08:50:15.379Z,15.18
2023-04-18T08:52:49.157Z,15.01
2023-04-18T08:55:17.168Z,14.76
2023-04-18T08:57:45.020Z,14.59
2023-04-18T09:00:13.014Z,14.61
2023-04-18T09:02:44.198Z,14.81
2023-04-18T09:05:22.200Z,15.14
2023-04-18T09:07:51.197Z,15.41
2023-04-18T09:10:31.068Z,15.45
2023-04-18T09:12:59.434Z,15.37
2023-04-18T09:15:29.465Z,15.14
2023-04-18T09:18:00.168Z,14.95
2023-04-18T09:20:35.351Z,14.84
2023-04-18T09:23:04.524Z,14.83
2023-04-18T09:25:42.703Z,14.91
2023-04-18T09:28:25.310Z,14.88
2023-04-18T09:30:53.467Z,14.85
2023-04-18T09:33:29.550Z,14.86
2023-04-18T09:35:57.725Z,14.76
2023-04-18T09:38:42.763Z,14.68
2023-04-18T09:41:12.066Z,14.66
2023-04-18T09:43:39.882Z,14.69
2023-04-18T09:46:08.545Z,14.73
2023-04-18T09:48:36.612Z,14.78
2023-04-18T09:51:10.042Z,14.96
2023-04-18T09:53:41.828Z,15.25
2023-04-18T09:56:32.135Z,15.55
2023-04-18T09:59:10.643Z,15.86
2023-04-18T10:01:40.559Z,16.14
2023-04-18T10:04:08.487Z,16.32
2023-04-18T10:06:42.305Z,16.25
2023-04-18T10:09:10.822Z,16.01
2023-04-18T10:11:38.899Z,15.76
2023-04-18T10:14:13.300Z,15.52
2023-04-18T10:16:42.416Z,15.27
2023-04-18T10:19:36.166Z,15.06
2023-04-18T10:22:03.263Z,14.95
2023-04-18T10:24:48.851Z,14.89
2023-04-18T10:27:18.419Z,14.89
2023-04-18T10:29:54.962Z,14.91
2023-04-18T10:32:25.015Z,14.95
2023-04-18T10:34:54.623Z,15.02
2023-04-18T10:37:22.282Z,15.21
2023-04-18T10:40:00.549Z,15.35
2023-04-18T10:42:52.910Z,15.55
2023-04-18T10:45:21.267Z,15.77
2023-04-18T10:47:49.236Z,15.91
2023-04-18T10:50:17.119Z,15.99
2023-04-18T10:52:45.235Z,16.09
2023-04-18T10:55:26.711Z,16.15
2023-04-18T10:57:57.405Z,16.08
2023-04-18T11:00:25.719Z,16.00
2023-04-18T11:02:56.668Z,15.98
2023-04-18T11:05:27.038Z,15.97
2023-04-18T11:07:54.617Z,15.96
2023-04-18T11:10:24.736Z,15.96
2023-04-18T11:12:53.342Z,15.96
2023-04-18T11:15:22.885Z,15.96
2023-04-18T11:18:01.799Z,15.97
2023-04-18T11:20:30.860Z,16.00
2023-04-18T11:23:00.158Z,15.96
2023-04-18T11:25:41.320Z,15.90
2023-04-18T11:28:08.308Z,15.91
2023-04-18T11:30:40.657Z,15.89
2023-04-18T11:33:12.833Z,16.02
2023-04-18T11:35:41.752Z,16.15
2023-04-18T11:38:10.687Z,16.39
2023-04-18T11:40:38.457Z,16.72
2023-04-18T11:43:07.479Z,17.08
2023-04-18T11:45:35.398Z,17.41
2023-04-18T11:48:03.249Z,17.75
2023-04-18T11:50:37.482Z,18.02
2023-04-18T11:53:04.566Z,18.18
2023-04-18T11:55:31.621Z,18.28
2023-04-18T11:58:00.380Z,18.36
2023-04-18T12:00:42.382Z,18.56
2023-04-18T12:03:19.084Z,18.64
2023-04-18T12:05:46.376Z,18.64
2023-04-18T12:08:25.658Z,18.64
2023-04-18T12:10:54.076Z,18.81
2023-04-18T12:13:34.510Z,19.05
2023-04-18T12:16:02.876Z,18.95
2023-04-18T12:18:30.521Z,18.91
2023-04-18T12:20:58.860Z,18.79
2023-04-18T12:23:40.567Z,18.67
2023-04-18T12:26:15.653Z,18.43
2023-04-18T12:28:46.695Z,18.22
2023-04-18T12:31:13.990Z,18.14
2023-04-18T12:33:41.319Z,18.18
2023-04-18T12:36:11.672Z,18.24
2023-04-18T12:38:38.754Z,18.22
2023-04-18T12:41:06.216Z,18.31
2023-04-18T12:43:33.473Z,18.51
2023-04-18T12:46:00.513Z,18.71
2023-04-18T12:48:27.932Z,18.92
2023-04-18T12:50:55.023Z,18.96
2023-04-18T12:53:22.531Z,18.91
2023-04-18T12:55:50.194Z,18.98
2023-04-18T12:58:19.007Z,19.06
2023-04-18T13:00:46.686Z,19.12
2023-04-18T13:03:14.273Z,19.20
2023-04-18T13:05:41.587Z,19.16
2023-04-18T13:08:16.751Z,19.00
2023-04-18T13:10:46.075Z,18.83
2023-04-18T13:13:13.640Z,18.73
2023-04-18T13:15:41.354Z,18.69
2023-04-18T13:18:08.392Z,18.53
2023-04-18T13:20:36.426Z,18.43
2023-04-18T13:23:03.812Z,18.38
2023-04-18T13:25:31.796Z,18.22
2023-04-18T13:28:01.037Z,18.15
2023-04-18T13:30:28.532Z,18.09
2023-04-18T13:32:56.172Z,17.96
2023-04-18T13:35:23.332Z,17.88
2023-04-18T13:37:50.760Z,17.86
2023-04-18T13:40:18.376Z,17.85
2023-04-18T13:42:45.394Z,17.74
2023-04-18T13:45:12.398Z,17.66
2023-04-18T13:47:40.176Z,17.64
2023-04-18T13:50:08.648Z,17.63
2023-04-18T13:52:36.924Z,17.58
2023-04-18T13:55:04.328Z,17.56
2023-04-18T13:57:33.783Z,17.51
2023-04-18T14:00:00.638Z,17.46
2023-04-18T14:02:27.719Z,17.45
2023-04-18T14:04:55.771Z,17.43
2023-04-18T14:07:22.962Z,17.40
2023-04-18T14:09:50.833Z,17.39
2023-04-18T14:18:09.560Z,17.25
2023-04-18T14:20:36.965Z,17.21
2023-04-18T14:23:04.049Z,17.19
2023-04-18T14:25:31.499Z,17.19
2023-04-18T14:28:10.987Z,17.11
2023-04-18T14:30:40.064Z,17.03
2023-04-18T14:33:09.893Z,16.98
2023-04-18T14:35:37.848Z,16.99
2023-04-18T14:38:04.855Z,17.02
2023-04-18T14:40:33.041Z,16.99
2023-04-18T14:43:00.524Z,16.97
2023-04-18T14:45:28.168Z,16.98
2023-04-18T14:47:56.301Z,17.01
2023-04-18T14:50:23.702Z,16.98
2023-04-18T14:52:51.591Z,16.96
2023-04-18T14:55:22.352Z,16.93
2023-04-18T14:57:49.365Z,16.95
2023-04-18T15:00:16.979Z,17.01
2023-04-18T15:02:44.547Z,17.06
2023-04-18T15:05:13.082Z,17.12
2023-04-18T15:07:42.356Z,17.16
2023-04-18T15:10:12.915Z,17.16
2023-04-18T15:12:40.178Z,17.12
2023-04-18T15:15:07.947Z,17.14
2023-04-18T15:17:35.347Z,17.10
2023-04-18T15:20:02.599Z,17.03
2023-04-18T15:22:29.698Z,16.96
2023-04-18T15:24:56.705Z,16.89
2023-04-18T15:27:34.634Z,16.78
2023-04-18T15:30:13.780Z,16.62
2023-04-18T15:32:42.545Z,16.56
2023-04-18T15:35:11.134Z,16.51
2023-04-18T15:37:38.389Z,16.43
2023-04-18T15:40:09.878Z,16.36
2023-04-18T15:42:37.538Z,16.31
2023-04-18T15:45:05.701Z,16.25
2023-04-18T15:47:34.784Z,16.21
2023-04-18T15:50:03.827Z,16.19
2023-04-18T15:52:30.903Z,16.15
2023-04-18T15:54:58.226Z,16.09
2023-04-18T15:57:25.548Z,16.05
2023-04-18T15:59:52.582Z,16.04
2023-04-18T16:02:20.691Z,16.01
2023-04-18T16:04:50.357Z,16.00
2023-04-18T16:07:35.325Z,15.97
2023-04-18T16:10:11.573Z,15.95
2023-04-18T16:12:51.681Z,15.89
2023-04-18T16:15:18.893Z,15.85
2023-04-18T16:17:46.385Z,15.81
2023-04-18T16:20:13.996Z,15.75
2023-04-18T16:22:41.591Z,15.68
2023-04-18T16:25:09.296Z,15.61
2023-04-18T16:27:36.277Z,15.58
2023-04-18T16:30:04.147Z,15.52
2023-04-18T16:32:31.367Z,15.44
2023-04-18T16:34:58.712Z,15.39
2023-04-18T16:37:25.710Z,15.32
2023-04-18T16:39:52.740Z,15.27
2023-04-18T16:42:19.599Z,15.21
2023-04-18T16:44:47.549Z,15.18
2023-04-18T16:47:14.899Z,15.13
2023-04-18T16:49:43.991Z,15.09
2023-04-18T16:52:11.122Z,15.03
2023-04-18T16:54:38.233Z,15.00
2023-04-18T16:57:05.383Z,14.96
2023-04-18T16:59:32.270Z,14.95
2023-04-18T17:01:59.845Z,14.91
2023-04-18T17:04:30.076Z,14.87
2023-04-18T17:06:57.633Z,14.83
2023-04-18T17:09:25.115Z,14.79
2023-04-18T17:11:52.067Z,14.76
2023-04-18T17:14:19.507Z,14.74
2023-04-18T17:16:47.004Z,14.69
2023-04-18T17:19:14.493Z,14.65
2023-04-18T17:21:42.331Z,14.61
2023-04-18T17:24:09.888Z,14.58
2023-04-18T17:26:39.195Z,14.55
2023-04-18T17:29:06.655Z,14.53
2023-04-18T17:31:34.631Z,14.50
2023-04-18T17:34:02.278Z,14.46
2023-04-18T17:36:29.748Z,14.42
2023-04-18T17:38:58.560Z,14.39
2023-04-18T17:41:25.967Z,14.37
2023-04-18T17:43:53.223Z,14.34
2023-04-18T17:46:20.187Z,14.32
2023-04-18T17:48:47.439Z,14.27
2023-04-18T17:51:16.865Z,14.25
2023-04-18T17:53:43.886Z,14.23
2023-04-18T17:56:11.304Z,14.19
2023-04-18T17:58:38.351Z,14.13
2023-04-18T18:01:17.744Z,14.08
2023-04-18T18:03:45.393Z,14.04
2023-04-18T18:06:14.320Z,13.97
2023-04-18T18:08:42.894Z,13.92
2023-04-18T18:11:11.205Z,13.89
2023-04-18T18:13:42.026Z,13.86
2023-04-18T18:16:09.489Z,13.85
2023-04-18T18:18:37.657Z,13.82
2023-04-18T18:21:05.206Z,13.76
2023-04-18T18:23:32.242Z,13.73
2023-04-18T18:26:00.147Z,13.68
2023-04-18T18:28:27.193Z,13.62
2023-04-18T18:30:54.191Z,13.60
2023-04-18T18:33:21.266Z,13.58
2023-04-18T18:35:48.509Z,13.54
2023-04-18T18:38:15.349Z,13.52
2023-04-18T18:40:42.547Z,13.49
2023-04-18T18:43:09.605Z,14.14
2023-04-18T18:45:36.804Z,15.57
2023-04-18T18:48:04.362Z,16.58
2023-04-18T18:50:31.523Z,16.22
2023-04-18T18:52:58.866Z,15.43
2023-04-18T18:55:27.035Z,14.82
2023-04-18T18:57:54.325Z,14.38
2023-04-18T19:00:21.865Z,14.07
2023-04-18T19:02:49.556Z,13.80
2023-04-18T19:05:17.837Z,13.60
2023-04-18T19:07:45.245Z,13.43
2023-04-18T19:10:12.631Z,13.30
2023-04-18T19:12:39.747Z,13.55
2023-04-18T19:15:07.788Z,14.87
2023-04-18T19:17:34.747Z,15.94
2023-04-18T19:20:02.016Z,15.76
2023-04-18T19:22:29.931Z,15.01
2023-04-18T19:24:57.467Z,14.40
2023-04-18T19:27:24.353Z,13.97
2023-04-18T19:29:51.705Z,13.64
2023-04-18T19:32:18.650Z,13.37
2023-04-18T19:34:45.910Z,13.15
2023-04-18T19:37:13.107Z,12.99
2023-04-18T19:39:40.085Z,13.12
2023-04-18T19:42:07.758Z,14.27
2023-04-18T19:44:35.194Z,15.37
2023-04-18T19:47:02.350Z,15.85
2023-04-18T19:49:29.508Z,15.17
2023-04-18T19:51:56.552Z,14.37
2023-04-18T19:54:23.518Z,13.76
2023-04-18T19:56:51.187Z,13.31
2023-04-18T19:59:18.150Z,12.98
2023-04-18T20:01:45.365Z,13.41
2023-04-18T20:04:12.702Z,14.49
2023-04-18T20:06:39.752Z,15.24
2023-04-18T20:09:07.182Z,15.54
2023-04-18T20:11:34.566Z,14.86
2023-04-18T20:14:01.608Z,13.92
2023-04-18T20:16:29.022Z,13.49
2023-04-18T20:18:56.898Z,14.19
2023-04-18T20:21:23.750Z,14.92
2023-04-18T20:23:51.352Z,15.49
2023-04-18T20:26:18.236Z,15.85
2023-04-18T20:28:45.602Z,16.12
2023-04-18T20:31:13.090Z,16.37
2023-04-18T20:33:40.043Z,16.60
2023-04-18T20:36:07.762Z,16.85
2023-04-18T20:38:34.738Z,17.09
2023-04-18T20:41:02.330Z,17.31
2023-04-18T20:43:29.381Z,17.52
2023-04-18T20:45:59.214Z,17.75
2023-04-18T20:48:26.705Z,17.72
2023-04-18T20:50:53.910Z,16.78
2023-04-18T20:53:22.872Z,15.73
2023-04-18T20:55:50.264Z,14.88
2023-04-18T20:58:17.539Z,14.22
2023-04-18T21:00:48.635Z,13.67
2023-04-18T21:03:16.963Z,13.46
2023-04-18T21:05:45.270Z,14.33
2023-04-18T21:08:13.025Z,15.13
2023-04-18T21:10:40.144Z,15.53
2023-04-18T21:13:07.389Z,15.75
2023-04-18T21:15:36.071Z,15.88
2023-04-18T21:18:03.125Z,16.00
2023-04-18T21:20:30.235Z,16.21
2023-04-18T21:22:57.747Z,16.36
2023-04-18T21:25:24.730Z,16.56
2023-04-18T21:27:52.189Z,16.76
2023-04-18T21:30:19.154Z,16.97
2023-04-18T21:32:47.480Z,17.14
2023-04-18T21:35:15.024Z,17.32
2023-04-18T21:37:43.191Z,17.23
2023-04-18T21:40:10.866Z,16.15
2023-04-18T21:42:38.392Z,15.07
2023-04-18T21:45:06.736Z,14.30
2023-04-18T21:47:34.162Z,13.71
2023-04-18T21:50:01.225Z,13.58
2023-04-18T21:52:28.227Z,14.64
2023-04-18T21:54:55.585Z,15.79
2023-04-18T21:57:22.627Z,16.64
2023-04-18T21:59:49.585Z,17.18
2023-04-18T22:02:16.729Z,17.57
2023-04-18T22:04:44.523Z,17.88
2023-04-18T22:07:13.143Z,17.88
2023-04-18T22:09:40.064Z,16.92
2023-04-18T22:12:07.270Z,15.85
2023-04-18T22:14:34.789Z,15.03
2023-04-18T22:17:03.676Z,14.66
2023-04-18T22:19:31.755Z,15.48
2023-04-18T22:21:59.031Z,16.36
2023-04-18T22:24:26.398Z,16.93
2023-04-18T22:26:53.828Z,17.30
2023-04-18T22:29:20.910Z,17.56
2023-04-18T22:31:47.961Z,17.78
2023-04-18T22:34:15.079Z,17.94
2023-04-18T22:36:44.504Z,17.85
2023-04-18T22:39:12.573Z,16.85
2023-04-18T22:41:39.441Z,15.77
2023-04-18T22:44:06.685Z,14.95
2023-04-18T22:46:33.622Z,14.57
2023-04-18T22:49:00.866Z,15.41
2023-04-18T22:51:28.998Z,16.28
2023-04-18T22:53:56.700Z,16.85
2023-04-18T22:56:23.689Z,17.22
2023-04-18T22:58:51.270Z,17.49
2023-04-18T23:01:18.851Z,17.72
2023-04-18T23:03:46.405Z,17.92
2023-04-18T23:06:13.561Z,18.10
2023-04-18T23:08:40.466Z,18.03
2023-04-18T23:11:13.851Z,17.07
2023-04-18T23:13:40.816Z,16.02
2023-04-18T23:16:08.388Z,15.17
2023-04-18T23:18:35.472Z,14.53
2023-04-18T23:21:02.297Z,14.02
2023-04-18T23:23:29.226Z,13.88
2023-04-18T23:25:55.988Z,14.88
2023-04-18T23:28:22.952Z,15.88
2023-04-18T23:30:50.773Z,16.51
2023-04-18T23:33:17.629Z,16.90
2023-04-18T23:35:44.454Z,17.17
2023-04-18T23:38:11.335Z,17.41
2023-04-18T23:40:38.333Z,17.62
2023-04-18T23:43:05.217Z,17.75
2023-04-18T23:45:32.230Z,17.88
2023-04-18T23:47:59.145Z,17.75
2023-04-18T23:50:26.257Z,16.76
2023-04-18T23:52:53.208Z,15.75
2023-04-18T23:55:20.117Z,14.94
2023-04-18T23:57:47.055Z,14.29
